createdAt,value
2019-05-01T00:00:33.396Z,23.33
2019-05-01T00:03:08.239Z,25.07
2019-05-01T00:05:45.299Z,22.83
2019-05-01T00:08:15.450Z,23.50
2019-05-01T00:10:45.009Z,25.50
2019-05-01T00:13:14.563Z,23.73
2019-05-01T00:15:44.827Z,22.90
2019-05-01T00:18:15.187Z,22.70
2019-05-01T00:20:44.729Z,25.97
2019-05-01T00:23:14.431Z,26.50
2019-05-01T00:25:44.689Z,23.40
2019-05-01T00:28:14.388Z,22.70
2019-05-01T00:30:44.360Z,26.80
2019-05-01T00:33:13.924Z,23.10
2019-05-01T00:35:43.571Z,26.37
2019-05-01T00:38:13.143Z,23.60
2019-05-01T00:40:42.709Z,24.03
2019-05-01T00:43:12.350Z,23.27
2019-05-01T00:45:41.918Z,25.27
2019-05-01T00:48:11.693Z,23.70
2019-05-01T00:50:41.248Z,24.07
2019-05-01T00:53:10.817Z,24.83
2019-05-01T00:55:42.135Z,27.80
2019-05-01T00:58:22.532Z,27.10
2019-05-01T01:01:09.570Z,24.77
2019-05-01T01:03:40.514Z,26.53
2019-05-01T01:06:10.594Z,25.53
2019-05-01T01:08:40.153Z,24.30
2019-05-01T01:11:09.707Z,26.20
2019-05-01T01:13:39.377Z,25.87
2019-05-01T01:16:08.959Z,27.13
2019-05-01T01:18:38.595Z,27.77
2019-05-01T01:21:08.241Z,30.20
2019-05-01T01:23:38.483Z,27.23
2019-05-01T01:26:08.298Z,29.97
2019-05-01T01:28:38.228Z,28.83
2019-05-01T01:31:07.866Z,28.63
2019-05-01T01:33:37.845Z,28.13
2019-05-01T01:36:07.433Z,25.73
2019-05-01T01:38:36.984Z,27.80
2019-05-01T01:41:06.983Z,26.23
2019-05-01T01:43:39.591Z,28.10
2019-05-01T01:46:17.297Z,30.77
2019-05-01T01:48:47.086Z,30.50
2019-05-01T01:51:17.312Z,31.80
2019-05-01T01:53:47.679Z,31.03
2019-05-01T01:56:18.142Z,32.20
2019-05-01T01:58:47.974Z,34.97
2019-05-01T02:01:29.125Z,31.13
2019-05-01T02:04:00.466Z,32.67
2019-05-01T02:06:30.171Z,32.43
2019-05-01T02:09:00.300Z,32.77
2019-05-01T02:11:30.390Z,29.23
2019-05-01T02:13:59.943Z,32.53
2019-05-01T02:16:30.856Z,29.23
2019-05-01T02:19:00.584Z,30.73
2019-05-01T02:21:30.155Z,28.57
2019-05-01T02:24:00.406Z,33.77
2019-05-01T02:26:32.272Z,29.80
2019-05-01T02:29:11.444Z,30.93
2019-05-01T02:31:43.473Z,33.10
2019-05-01T02:34:13.747Z,32.53
2019-05-01T02:36:47.070Z,31.03
2019-05-01T02:39:21.560Z,32.13
2019-05-01T02:41:55.025Z,31.07
2019-05-01T02:44:47.055Z,28.67
2019-05-01T02:47:21.795Z,30.47
2019-05-01T02:49:58.260Z,32.10
2019-05-01T02:52:35.815Z,34.27
2019-05-01T02:55:10.993Z,30.07
2019-05-01T02:57:43.104Z,32.33
2019-05-01T03:00:13.126Z,31.77
2019-05-01T03:02:43.317Z,30.67
2019-05-01T03:05:13.180Z,33.13
2019-05-01T03:07:43.941Z,31.23
2019-05-01T03:10:14.272Z,31.57
2019-05-01T03:12:48.379Z,31.00
2019-05-01T03:15:21.237Z,30.17
2019-05-01T03:17:56.249Z,30.70
2019-05-01T03:20:46.354Z,30.73
2019-05-01T03:23:24.676Z,32.43
2019-05-01T03:25:54.671Z,32.37
2019-05-01T03:28:24.852Z,35.70
2019-05-01T03:30:55.407Z,31.37
2019-05-01T03:33:26.315Z,31.80
2019-05-01T03:35:56.479Z,36.35
2019-05-01T03:38:26.398Z,32.47
2019-05-01T03:40:56.948Z,34.53
2019-05-01T03:43:27.603Z,33.83
2019-05-01T03:45:58.012Z,34.10
2019-05-01T03:48:28.505Z,30.70
2019-05-01T03:50:58.511Z,30.23
2019-05-01T03:53:28.486Z,33.20
2019-05-01T03:55:59.308Z,31.07
2019-05-01T03:58:29.398Z,33.60
2019-05-01T04:01:03.804Z,30.27
2019-05-01T04:03:41.264Z,35.70
2019-05-01T04:06:12.186Z,32.47
2019-05-01T04:08:42.082Z,30.27
2019-05-01T04:11:11.982Z,33.73
2019-05-01T04:13:42.768Z,32.40
2019-05-01T04:16:13.808Z,33.67
2019-05-01T04:18:43.594Z,36.93
2019-05-01T04:21:13.287Z,36.93
2019-05-01T04:23:44.214Z,39.00
2019-05-01T04:26:13.923Z,39.20
2019-05-01T04:28:47.922Z,35.67
2019-05-01T04:31:35.215Z,36.73
2019-05-01T04:34:07.751Z,35.23
2019-05-01T04:36:48.525Z,32.93
2019-05-01T04:39:18.787Z,36.73
2019-05-01T04:41:48.777Z,33.70
2019-05-01T04:44:18.414Z,37.83
2019-05-01T04:46:49.613Z,35.60
2019-05-01T04:49:20.095Z,34.43
2019-05-01T04:51:50.454Z,63.47
2019-05-01T04:54:21.372Z,48.07
2019-05-01T04:56:51.101Z,42.73
2019-05-01T04:59:21.319Z,42.07
2019-05-01T05:01:56.506Z,45.43
2019-05-01T05:04:25.502Z,47.13
2019-05-01T05:06:55.963Z,47.07
2019-05-01T05:09:46.973Z,46.83
2019-05-01T05:12:34.863Z,45.00
2019-05-01T05:15:18.130Z,43.07
2019-05-01T05:17:47.902Z,63.43
2019-05-01T05:20:18.164Z,48.77
2019-05-01T05:22:48.439Z,47.77
2019-05-01T05:25:19.200Z,46.47
2019-05-01T05:27:51.640Z,51.37
2019-05-01T05:30:24.254Z,45.33
2019-05-01T05:32:56.781Z,44.40
2019-05-01T05:35:30.067Z,47.27
2019-05-01T05:38:20.811Z,44.03
2019-05-01T05:40:51.774Z,44.63
2019-05-01T05:43:21.992Z,49.13
2019-05-01T05:45:52.197Z,45.47
2019-05-01T05:48:21.751Z,45.53
2019-05-01T05:51:13.063Z,46.90
2019-05-01T05:53:47.321Z,45.57
2019-05-01T05:56:22.363Z,49.87
2019-05-01T05:58:57.986Z,48.73
2019-05-01T06:01:49.289Z,50.93
2019-05-01T06:04:24.280Z,68.67
2019-05-01T06:07:00.271Z,51.97
2019-05-01T06:09:35.108Z,47.73
2019-05-01T06:12:21.769Z,49.27
2019-05-01T06:15:12.486Z,48.80
2019-05-01T06:17:52.595Z,51.47
2019-05-01T06:20:27.665Z,50.13
2019-05-01T06:23:10.730Z,50.23
2019-05-01T06:25:45.073Z,50.80
2019-05-01T06:28:15.533Z,52.30
2019-05-01T06:30:47.084Z,59.20
2019-05-01T06:33:16.590Z,132.63
2019-05-01T06:35:46.568Z,104.07
2019-05-01T06:38:18.211Z,61.37
2019-05-01T06:40:53.071Z,57.20
2019-05-01T06:43:28.397Z,63.50
2019-05-01T06:46:02.811Z,52.95
2019-05-01T06:48:34.016Z,59.33
2019-05-01T06:51:21.891Z,49.47
2019-05-01T06:53:51.531Z,52.07
2019-05-01T06:56:21.122Z,51.73
2019-05-01T06:58:55.248Z,54.93
2019-05-01T07:01:24.018Z,65.30
2019-05-01T07:04:03.613Z,53.90
2019-05-01T07:06:31.134Z,53.03
2019-05-01T07:08:58.983Z,53.57
2019-05-01T07:11:29.855Z,51.93
2019-05-01T07:13:59.516Z,47.67
2019-05-01T07:16:33.074Z,52.30
2019-05-01T07:19:05.830Z,48.40
2019-05-01T07:21:34.351Z,65.20
2019-05-01T07:24:05.307Z,57.93
2019-05-01T07:26:34.856Z,53.57
2019-05-01T07:29:09.903Z,54.43
2019-05-01T07:31:40.901Z,112.70
2019-05-01T07:34:16.670Z,80.65
2019-05-01T07:36:45.575Z,55.70
2019-05-01T07:39:14.702Z,50.17
2019-05-01T07:41:45.516Z,49.23
2019-05-01T07:44:16.933Z,55.50
2019-05-01T07:46:56.048Z,57.47
2019-05-01T07:49:57.292Z,50.77
2019-05-01T07:52:29.177Z,50.60
2019-05-01T07:55:00.245Z,53.23
2019-05-01T07:57:34.460Z,53.97
2019-05-01T08:00:08.143Z,56.97
2019-05-01T08:02:35.384Z,52.67
2019-05-01T08:05:09.921Z,51.23
2019-05-01T08:07:38.230Z,49.40
2019-05-01T08:10:09.205Z,46.40
2019-05-01T08:12:38.764Z,46.63
2019-05-01T08:15:09.005Z,49.70
2019-05-01T08:17:40.275Z,48.60
2019-05-01T08:20:16.756Z,44.40
2019-05-01T08:22:46.659Z,49.10
2019-05-01T08:25:16.259Z,45.03
2019-05-01T08:27:57.998Z,47.57
2019-05-01T08:30:48.034Z,47.23
2019-05-01T08:33:34.556Z,53.53
2019-05-01T08:36:06.833Z,43.57
2019-05-01T08:38:35.803Z,46.77
2019-05-01T08:41:07.187Z,47.67
2019-05-01T08:43:38.118Z,50.70
2019-05-01T08:46:11.830Z,57.97
2019-05-01T08:48:42.822Z,47.00
2019-05-01T08:51:12.802Z,45.13
2019-05-01T08:53:42.362Z,46.00
2019-05-01T08:56:12.003Z,45.40
2019-05-01T08:58:44.764Z,46.27
2019-05-01T09:01:15.085Z,48.37
2019-05-01T09:03:45.233Z,53.13
2019-05-01T09:06:14.796Z,46.70
2019-05-01T09:08:44.654Z,53.47
2019-05-01T09:11:14.226Z,50.13
2019-05-01T09:13:43.875Z,51.10
2019-05-01T09:16:13.520Z,48.93
2019-05-01T09:18:43.268Z,55.50
2019-05-01T09:21:12.819Z,52.50
2019-05-01T09:23:46.255Z,52.10
2019-05-01T09:26:20.048Z,51.87
2019-05-01T09:28:51.315Z,54.17
2019-05-01T09:31:22.512Z,59.43
2019-05-01T09:33:52.073Z,62.87
2019-05-01T09:36:21.786Z,60.87
2019-05-01T09:38:51.342Z,62.03
2019-05-01T09:41:20.967Z,61.50
2019-05-01T09:43:50.558Z,60.60
2019-05-01T09:46:20.835Z,62.50
2019-05-01T09:48:50.765Z,58.37
2019-05-01T09:51:21.964Z,65.47
2019-05-01T09:54:09.358Z,64.27
2019-05-01T09:56:38.394Z,62.37
2019-05-01T09:59:08.202Z,60.17
2019-05-01T10:01:38.003Z,60.17
2019-05-01T10:04:07.561Z,61.37
2019-05-01T10:06:37.423Z,59.20
2019-05-01T10:09:12.060Z,60.07
2019-05-01T10:11:41.849Z,63.77
2019-05-01T10:14:11.668Z,59.33
2019-05-01T10:16:41.235Z,60.97
2019-05-01T10:19:11.503Z,67.37
2019-05-01T10:21:41.665Z,73.23
2019-05-01T10:24:11.360Z,66.80
2019-05-01T10:26:42.686Z,80.23
2019-05-01T10:29:15.677Z,72.17
2019-05-01T10:31:55.937Z,63.57
2019-05-01T10:34:28.163Z,65.20
2019-05-01T10:36:57.854Z,60.73
2019-05-01T10:39:30.114Z,60.73
2019-05-01T10:41:58.723Z,62.97
2019-05-01T10:44:28.437Z,65.50
2019-05-01T10:46:58.110Z,55.27
2019-05-01T10:49:27.669Z,60.80
2019-05-01T10:51:57.735Z,60.43
2019-05-01T10:54:27.325Z,57.80
2019-05-01T10:56:58.811Z,57.20
2019-05-01T10:59:28.359Z,88.73
2019-05-01T11:01:59.622Z,72.13
2019-05-01T11:04:29.328Z,74.00
2019-05-01T11:06:59.114Z,58.07
2019-05-01T11:09:28.777Z,58.53
2019-05-01T11:11:58.330Z,53.43
2019-05-01T11:14:28.002Z,58.03
2019-05-01T11:16:57.940Z,59.80
2019-05-01T11:19:29.618Z,55.37
2019-05-01T11:21:59.669Z,56.33
2019-05-01T11:24:29.237Z,55.20
2019-05-01T11:26:58.805Z,58.70
2019-05-01T11:29:28.525Z,52.87
2019-05-01T11:32:00.374Z,53.33
2019-05-01T11:34:31.582Z,51.07
2019-05-01T11:37:08.545Z,46.60
2019-05-01T11:39:42.197Z,47.93
2019-05-01T11:42:13.309Z,46.20
2019-05-01T11:44:43.590Z,46.55
2019-05-01T11:47:13.156Z,48.25
2019-05-01T11:49:42.853Z,49.30
2019-05-01T11:52:12.418Z,46.85
2019-05-01T11:54:42.064Z,46.60
2019-05-01T11:57:11.636Z,48.92
2019-05-01T11:59:41.207Z,46.80
2019-05-01T12:02:10.857Z,49.03
2019-05-01T12:04:40.490Z,45.27
2019-05-01T12:07:10.750Z,47.67
2019-05-01T12:09:40.477Z,47.45
2019-05-01T12:12:14.090Z,48.95
2019-05-01T12:15:18.516Z,49.18
2019-05-01T12:17:49.631Z,51.00
2019-05-01T12:20:21.703Z,53.38
2019-05-01T12:22:51.720Z,50.23
2019-05-01T12:25:21.417Z,59.40
2019-05-01T12:27:51.146Z,61.20
2019-05-01T12:30:21.525Z,58.08
2019-05-01T12:32:51.128Z,53.40
2019-05-01T12:35:20.734Z,54.23
2019-05-01T12:37:51.158Z,56.27
2019-05-01T12:40:22.607Z,56.43
2019-05-01T12:42:52.568Z,54.67
2019-05-01T12:45:22.299Z,58.00
2019-05-01T12:47:53.505Z,59.10
2019-05-01T12:50:23.312Z,57.00
2019-05-01T12:52:58.419Z,50.47
2019-05-01T12:55:46.665Z,60.00
2019-05-01T12:58:16.435Z,64.60
2019-05-01T13:00:56.191Z,59.20
2019-05-01T13:03:26.237Z,58.37
2019-05-01T13:05:56.383Z,59.07
2019-05-01T13:08:26.013Z,78.10
2019-05-01T13:10:56.365Z,61.07
2019-05-01T13:13:26.052Z,61.63
2019-05-01T13:15:55.621Z,57.77
2019-05-01T13:18:25.181Z,64.57
2019-05-01T13:20:54.944Z,58.53
2019-05-01T13:23:24.724Z,61.87
2019-05-01T13:25:55.935Z,61.67
2019-05-01T13:28:45.421Z,56.37
2019-05-01T13:31:22.409Z,58.60
2019-05-01T13:33:52.217Z,61.63
2019-05-01T13:36:22.370Z,60.10
2019-05-01T13:38:51.918Z,59.87
2019-05-01T13:41:21.557Z,60.83
2019-05-01T13:43:51.199Z,55.63
2019-05-01T13:46:20.775Z,56.40
2019-05-01T13:48:50.516Z,56.17
2019-05-01T13:51:20.393Z,56.13
2019-05-01T13:53:49.950Z,53.70
2019-05-01T13:56:19.609Z,53.53
2019-05-01T13:58:49.251Z,55.50
2019-05-01T14:01:19.329Z,50.33
2019-05-01T14:03:49.333Z,49.43
2019-05-01T14:06:18.900Z,53.17
2019-05-01T14:08:48.486Z,47.40
2019-05-01T14:11:18.330Z,50.00
2019-05-01T14:13:47.892Z,50.60
2019-05-01T14:16:17.787Z,50.13
2019-05-01T14:18:47.483Z,48.23
2019-05-01T14:21:25.521Z,47.13
2019-05-01T14:24:08.961Z,46.67
2019-05-01T14:26:38.836Z,46.43
2019-05-01T14:29:08.392Z,46.77
2019-05-01T14:31:38.293Z,48.40
2019-05-01T14:34:08.580Z,48.03
2019-05-01T14:36:38.149Z,49.03
2019-05-01T14:39:08.571Z,49.47
2019-05-01T14:41:38.299Z,49.03
2019-05-01T14:44:07.871Z,48.73
2019-05-01T14:46:39.061Z,49.90
2019-05-01T14:49:08.826Z,48.50
2019-05-01T14:51:38.375Z,51.47
2019-05-01T14:54:08.239Z,51.47
2019-05-01T14:56:38.421Z,52.30
2019-05-01T14:59:08.074Z,56.97
2019-05-01T15:01:38.070Z,61.13
2019-05-01T15:04:07.637Z,58.57
2019-05-01T15:06:37.207Z,59.47
2019-05-01T15:09:09.440Z,62.47
2019-05-01T15:11:39.946Z,76.17
2019-05-01T15:14:11.321Z,77.17
2019-05-01T15:16:51.254Z,64.47
2019-05-01T15:19:23.626Z,63.10
2019-05-01T15:21:53.203Z,68.20
2019-05-01T15:24:22.773Z,64.13
2019-05-01T15:26:52.452Z,66.33
2019-05-01T15:29:22.020Z,67.37
2019-05-01T15:31:51.560Z,68.53
2019-05-01T15:34:21.456Z,68.70
2019-05-01T15:36:51.384Z,66.23
2019-05-01T15:39:28.316Z,64.43
2019-05-01T15:42:05.321Z,61.90
2019-05-01T15:44:36.769Z,64.07
2019-05-01T15:47:06.344Z,65.77
2019-05-01T15:49:35.926Z,62.57
2019-05-01T15:52:05.816Z,64.37
2019-05-01T15:54:35.414Z,64.73
2019-05-01T15:57:06.005Z,59.03
2019-05-01T15:59:35.621Z,71.23
2019-05-01T16:02:05.325Z,62.17
2019-05-01T16:04:34.943Z,63.20
2019-05-01T16:07:04.620Z,57.30
2019-05-01T16:09:34.982Z,59.23
2019-05-01T16:12:06.237Z,64.57
2019-05-01T16:14:36.179Z,63.17
2019-05-01T16:17:05.828Z,62.17
2019-05-01T16:19:35.423Z,57.33
2019-05-01T16:22:05.530Z,57.50
2019-05-01T16:24:35.116Z,58.20
2019-05-01T16:27:05.819Z,59.20
2019-05-01T16:29:35.373Z,62.80
2019-05-01T16:32:06.682Z,56.60
2019-05-01T16:34:41.709Z,57.83
2019-05-01T16:37:11.246Z,60.17
2019-05-01T16:39:55.438Z,62.27
2019-05-01T16:42:26.766Z,59.37
2019-05-01T16:44:56.339Z,58.97
2019-05-01T16:47:25.900Z,57.77
2019-05-01T16:49:55.585Z,57.13
2019-05-01T16:52:27.871Z,55.03
2019-05-01T16:54:59.418Z,58.33
2019-05-01T16:57:33.249Z,57.33
2019-05-01T17:00:03.519Z,54.30
2019-05-01T17:02:43.726Z,53.50
2019-05-01T17:05:20.086Z,51.63
2019-05-01T17:08:07.229Z,50.53
2019-05-01T17:10:47.417Z,52.17
2019-05-01T17:13:17.743Z,55.53
2019-05-01T17:15:51.595Z,52.50
2019-05-01T17:18:21.790Z,59.17
2019-05-01T17:20:51.606Z,47.40
2019-05-01T17:23:21.167Z,48.70
2019-05-01T17:25:50.847Z,50.93
2019-05-01T17:28:20.477Z,58.43
2019-05-01T17:30:51.993Z,46.00
2019-05-01T17:33:22.126Z,62.00
2019-05-01T17:35:52.088Z,51.70
2019-05-01T17:38:24.777Z,44.20
2019-05-01T17:40:54.577Z,43.40
2019-05-01T17:43:24.134Z,55.30
2019-05-01T17:45:54.725Z,58.07
2019-05-01T17:48:28.883Z,42.77
2019-05-01T17:51:03.807Z,40.97
2019-05-01T17:53:36.634Z,39.67
2019-05-01T17:56:10.226Z,40.03
2019-05-01T17:58:38.507Z,39.50
2019-05-01T18:01:21.765Z,41.10
2019-05-01T18:03:58.805Z,40.83
2019-05-01T18:06:31.572Z,43.20
2019-05-01T18:09:03.088Z,47.17
2019-05-01T18:11:32.898Z,43.03
2019-05-01T18:14:05.424Z,45.30
2019-05-01T18:16:34.731Z,49.83
2019-05-01T18:19:08.337Z,52.57
2019-05-01T18:21:38.221Z,44.47
2019-05-01T18:24:26.018Z,43.90
2019-05-01T18:27:00.000Z,45.90
2019-05-01T18:29:35.507Z,45.37
2019-05-01T18:32:10.089Z,43.73
2019-05-01T18:34:39.587Z,47.37
2019-05-01T18:37:10.926Z,47.10
2019-05-01T18:39:45.224Z,51.27
2019-05-01T18:42:17.075Z,49.83
2019-05-01T18:44:47.526Z,47.37
2019-05-01T18:47:18.047Z,52.13
2019-05-01T18:49:48.464Z,51.37
2019-05-01T18:52:18.491Z,46.40
2019-05-01T18:54:48.275Z,49.47
2019-05-01T18:57:17.906Z,54.53
2019-05-01T18:59:47.546Z,55.77
2019-05-01T19:02:20.443Z,52.67
2019-05-01T19:04:48.482Z,51.63
2019-05-01T19:07:18.868Z,50.23
2019-05-01T19:09:48.572Z,51.50
2019-05-01T19:12:18.209Z,55.57
2019-05-01T19:14:47.854Z,55.30
2019-05-01T19:17:17.696Z,48.87
2019-05-01T19:19:47.364Z,54.00
2019-05-01T19:22:17.729Z,52.60
2019-05-01T19:24:47.633Z,51.80
2019-05-01T19:27:19.090Z,56.87
2019-05-01T19:29:48.926Z,54.63
2019-05-01T19:32:19.881Z,53.00
2019-05-01T19:34:49.466Z,55.00
2019-05-01T19:37:21.835Z,52.93
2019-05-01T19:39:53.829Z,51.73
2019-05-01T19:42:23.666Z,51.40
2019-05-01T19:44:56.418Z,53.10
2019-05-01T19:47:25.409Z,55.20
2019-05-01T19:49:55.238Z,52.60
2019-05-01T19:52:24.796Z,53.27
2019-05-01T19:54:54.357Z,51.57
2019-05-01T19:57:24.115Z,58.40
2019-05-01T19:59:54.005Z,53.27
2019-05-01T20:02:24.122Z,53.57
2019-05-01T20:04:53.884Z,73.67
2019-05-01T20:07:23.693Z,67.40
2019-05-01T20:09:57.055Z,52.67
2019-05-01T20:12:24.807Z,56.47
2019-05-01T20:14:54.643Z,52.57
2019-05-01T20:17:24.283Z,54.33
2019-05-01T20:19:53.851Z,57.23
2019-05-01T20:22:23.634Z,51.37
2019-05-01T20:24:53.205Z,56.90
2019-05-01T20:27:22.766Z,54.77
2019-05-01T20:29:52.549Z,56.83
2019-05-01T20:32:26.343Z,55.43
2019-05-01T20:34:54.063Z,55.63
2019-05-01T20:37:24.157Z,55.43
2019-05-01T20:39:53.734Z,59.37
2019-05-01T20:42:23.480Z,60.90
2019-05-01T20:45:03.979Z,62.37
2019-05-01T20:47:35.023Z,55.30
2019-05-01T20:49:55.907Z,59.90
2019-05-01T20:52:25.687Z,60.03
2019-05-01T20:54:55.266Z,58.80
2019-05-01T20:57:26.483Z,58.57
2019-05-01T20:59:56.314Z,59.57
2019-05-01T21:02:26.011Z,63.63
2019-05-01T21:04:55.356Z,61.30
2019-05-01T21:07:35.395Z,62.70
2019-05-01T21:10:08.176Z,61.17
2019-05-01T21:12:37.819Z,58.90
2019-05-01T21:15:08.520Z,57.43
2019-05-01T21:17:38.205Z,59.57
2019-05-01T21:20:07.893Z,61.63
2019-05-01T21:22:37.605Z,60.33
2019-05-01T21:25:07.579Z,59.00
2019-05-01T21:27:37.159Z,61.20
2019-05-01T21:30:11.209Z,59.70
2019-05-01T21:32:40.751Z,61.40
2019-05-01T21:35:10.628Z,60.23
2019-05-01T21:37:40.315Z,59.23
2019-05-01T21:40:10.107Z,61.23
2019-05-01T21:42:40.316Z,59.33
2019-05-01T21:45:10.118Z,55.13
2019-05-01T21:47:40.123Z,62.00
2019-05-01T21:50:09.779Z,60.90
2019-05-01T21:52:39.461Z,59.60
2019-05-01T21:55:09.367Z,60.63
2019-05-01T21:57:40.771Z,55.80
2019-05-01T22:00:11.766Z,62.03
2019-05-01T22:02:41.555Z,59.17
2019-05-01T22:05:13.437Z,59.63
2019-05-01T22:07:43.090Z,59.00
2019-05-01T22:10:13.163Z,62.17
2019-05-01T22:12:44.104Z,59.27
2019-05-01T22:15:21.578Z,62.57
2019-05-01T22:17:52.801Z,61.30
2019-05-01T22:20:27.075Z,59.13
2019-05-01T22:23:04.330Z,60.63
2019-05-01T22:25:36.069Z,61.70
2019-05-01T22:28:07.602Z,62.93
2019-05-01T22:30:42.224Z,64.03
2019-05-01T22:33:10.462Z,62.83
2019-05-01T22:35:43.215Z,64.23
2019-05-01T22:38:12.774Z,61.23
2019-05-01T22:41:06.024Z,66.07
2019-05-01T22:43:27.409Z,63.27
2019-05-01T22:46:01.561Z,62.27
2019-05-01T22:48:28.417Z,61.77
2019-05-01T22:50:59.784Z,61.97
2019-05-01T22:53:29.337Z,65.80
2019-05-01T22:56:02.199Z,64.87
2019-05-01T22:58:30.672Z,65.93
2019-05-01T23:01:01.274Z,68.67
2019-05-01T23:03:40.473Z,66.17
2019-05-01T23:06:07.907Z,63.50
2019-05-01T23:08:37.988Z,67.77
2019-05-01T23:11:19.195Z,61.83
2019-05-01T23:13:40.681Z,61.43
2019-05-01T23:16:10.419Z,66.30
2019-05-01T23:18:39.969Z,60.70
2019-05-01T23:21:14.479Z,62.50
2019-05-01T23:23:42.740Z,64.63
2019-05-01T23:26:16.549Z,61.73
2019-05-01T23:28:44.378Z,63.30
2019-05-01T23:31:14.799Z,58.87
2019-05-01T23:33:45.624Z,61.13
2019-05-01T23:36:23.310Z,60.25
2019-05-01T23:38:51.356Z,63.80
2019-05-01T23:41:24.874Z,64.47
2019-05-01T23:43:58.329Z,58.70
2019-05-01T23:46:26.466Z,62.87
2019-05-01T23:48:56.389Z,60.80
2019-05-01T23:51:28.520Z,63.97
2019-05-01T23:53:58.409Z,60.60
2019-05-01T23:56:31.029Z,61.27
2019-05-01T23:59:00.835Z,59.33
